sensor_id;sensor_type;location;lat;lon;timestamp;P1;durP1;ratioP1;P2;durP2;ratioP2
54123;SDS011;55741;53.252;5.788;2023-02-03T00:01:54;29.65;;;6.93;;
54123;SDS011;55741;53.252;5.788;2023-02-03T00:04:19;24.40;;;5.70;;
54123;SDS011;55741;53.252;5.788;2023-02-03T00:06:45;18.77;;;5.18;;
54123;SDS011;55741;53.252;5.788;2023-02-03T00:09:11;33.00;;;7.70;;
54123;SDS011;55741;53.252;5.788;2023-02-03T00:11:38;25.10;;;5.40;;
54123;SDS011;55741;53.252;5.788;2023-02-03T00:14:04;28.27;;;6.38;;
54123;SDS011;55741;53.252;5.788;2023-02-03T00:16:32;28.35;;;5.25;;
54123;SDS011;55741;53.252;5.788;2023-02-03T00:18:58;32.65;;;5.07;;
54123;SDS011;55741;53.252;5.788;2023-02-03T00:21:24;27.20;;;5.93;;
54123;SDS011;55741;53.252;5.788;2023-02-03T00:23:50;32.63;;;6.20;;
54123;SDS011;55741;53.252;5.788;2023-02-03T00:26:16;24.48;;;5.43;;
54123;SDS011;55741;53.252;5.788;2023-02-03T00:28:43;28.80;;;6.13;;
54123;SDS011;55741;53.252;5.788;2023-02-03T00:31:13;32.80;;;5.55;;
54123;SDS011;55741;53.252;5.788;2023-02-03T00:33:44;18.08;;;4.57;;
54123;SDS011;55741;53.252;5.788;2023-02-03T00:36:10;22.73;;;5.03;;
54123;SDS011;55741;53.252;5.788;2023-02-03T00:38:36;25.77;;;5.47;;
54123;SDS011;55741;53.252;5.788;2023-02-03T00:41:04;20.05;;;4.45;;
54123;SDS011;55741;53.252;5.788;2023-02-03T00:43:30;22.67;;;5.03;;
54123;SDS011;55741;53.252;5.788;2023-02-03T00:45:56;16.55;;;5.10;;
54123;SDS011;55741;53.252;5.788;2023-02-03T00:48:22;20.48;;;5.35;;
54123;SDS011;55741;53.252;5.788;2023-02-03T00:50:48;17.83;;;3.47;;
54123;SDS011;55741;53.252;5.788;2023-02-03T00:53:14;13.85;;;3.13;;
54123;SDS011;55741;53.252;5.788;2023-02-03T00:55:41;14.40;;;3.13;;
54123;SDS011;55741;53.252;5.788;2023-02-03T00:58:07;16.77;;;3.10;;
54123;SDS011;55741;53.252;5.788;2023-02-03T01:00:33;13.90;;;3.90;;
54123;SDS011;55741;53.252;5.788;2023-02-03T01:02:59;17.92;;;3.25;;
54123;SDS011;55741;53.252;5.788;2023-02-03T01:05:25;18.98;;;3.70;;
54123;SDS011;55741;53.252;5.788;2023-02-03T01:07:51;17.40;;;2.75;;
54123;SDS011;55741;53.252;5.788;2023-02-03T01:10:17;15.43;;;2.63;;
54123;SDS011;55741;53.252;5.788;2023-02-03T01:12:43;20.20;;;3.20;;
54123;SDS011;55741;53.252;5.788;2023-02-03T01:15:08;19.52;;;3.50;;
54123;SDS011;55741;53.252;5.788;2023-02-03T01:17:34;16.52;;;3.60;;
54123;SDS011;55741;53.252;5.788;2023-02-03T01:20:00;15.45;;;3.30;;
54123;SDS011;55741;53.252;5.788;2023-02-03T01:22:28;17.25;;;2.67;;
54123;SDS011;55741;53.252;5.788;2023-02-03T01:24:54;21.50;;;3.47;;
54123;SDS011;55741;53.252;5.788;2023-02-03T01:27:20;19.25;;;3.40;;
54123;SDS011;55741;53.252;5.788;2023-02-03T01:29:46;16.83;;;3.47;;
54123;SDS011;55741;53.252;5.788;2023-02-03T01:32:12;18.67;;;3.63;;
54123;SDS011;55741;53.252;5.788;2023-02-03T01:34:37;24.30;;;4.18;;
54123;SDS011;55741;53.252;5.788;2023-02-03T01:37:03;19.02;;;3.42;;
54123;SDS011;55741;53.252;5.788;2023-02-03T01:39:29;20.02;;;3.17;;
54123;SDS011;55741;53.252;5.788;2023-02-03T01:41:56;21.90;;;4.55;;
54123;SDS011;55741;53.252;5.788;2023-02-03T01:47:00;14.30;;;3.30;;
54123;SDS011;55741;53.252;5.788;2023-02-03T01:49:32;22.88;;;3.83;;
54123;SDS011;55741;53.252;5.788;2023-02-03T01:52:01;15.20;;;3.88;;
54123;SDS011;55741;53.252;5.788;2023-02-03T01:54:29;20.40;;;3.90;;
54123;SDS011;55741;53.252;5.788;2023-02-03T01:56:59;18.45;;;3.55;;
54123;SDS011;55741;53.252;5.788;2023-02-03T01:59:29;19.38;;;4.30;;
54123;SDS011;55741;53.252;5.788;2023-02-03T02:01:57;14.52;;;2.95;;
54123;SDS011;55741;53.252;5.788;2023-02-03T02:04:25;16.27;;;3.08;;
54123;SDS011;55741;53.252;5.788;2023-02-03T02:06:56;12.93;;;3.00;;
54123;SDS011;55741;53.252;5.788;2023-02-03T02:09:24;23.77;;;4.18;;
54123;SDS011;55741;53.252;5.788;2023-02-03T02:11:50;15.25;;;2.88;;
54123;SDS011;55741;53.252;5.788;2023-02-03T02:14:16;18.08;;;3.40;;
54123;SDS011;55741;53.252;5.788;2023-02-03T02:19:33;16.30;;;3.55;;
54123;SDS011;55741;53.252;5.788;2023-02-03T02:22:12;24.83;;;3.92;;
54123;SDS011;55741;53.252;5.788;2023-02-03T02:33:35;20.85;;;3.35;;
54123;SDS011;55741;53.252;5.788;2023-02-03T02:39:06;20.48;;;4.63;;
54123;SDS011;55741;53.252;5.788;2023-02-03T02:41:40;20.52;;;3.45;;
54123;SDS011;55741;53.252;5.788;2023-02-03T02:46:53;22.05;;;3.85;;
54123;SDS011;55741;53.252;5.788;2023-02-03T02:52:09;25.17;;;4.38;;
54123;SDS011;55741;53.252;5.788;2023-02-03T02:54:39;19.83;;;3.47;;
54123;SDS011;55741;53.252;5.788;2023-02-03T02:57:09;15.88;;;3.72;;
54123;SDS011;55741;53.252;5.788;2023-02-03T02:59:37;21.35;;;3.75;;
54123;SDS011;55741;53.252;5.788;2023-02-03T03:02:03;21.08;;;3.75;;
54123;SDS011;55741;53.252;5.788;2023-02-03T03:04:29;19.35;;;3.50;;
54123;SDS011;55741;53.252;5.788;2023-02-03T03:09:50;20.20;;;3.42;;
54123;SDS011;55741;53.252;5.788;2023-02-03T03:12:25;19.05;;;4.05;;
54123;SDS011;55741;53.252;5.788;2023-02-03T03:15:00;21.05;;;4.25;;
54123;SDS011;55741;53.252;5.788;2023-02-03T03:17:32;20.75;;;4.82;;
54123;SDS011;55741;53.252;5.788;2023-02-03T03:20:03;20.63;;;3.42;;
54123;SDS011;55741;53.252;5.788;2023-02-03T03:22:35;23.50;;;4.40;;
54123;SDS011;55741;53.252;5.788;2023-02-03T03:25:10;15.18;;;3.33;;
54123;SDS011;55741;53.252;5.788;2023-02-03T03:27:45;19.20;;;3.88;;
54123;SDS011;55741;53.252;5.788;2023-02-03T03:30:16;16.73;;;3.40;;
54123;SDS011;55741;53.252;5.788;2023-02-03T03:32:49;19.65;;;3.08;;
54123;SDS011;55741;53.252;5.788;2023-02-03T03:35:15;17.75;;;3.33;;
54123;SDS011;55741;53.252;5.788;2023-02-03T03:37:42;19.33;;;2.78;;
54123;SDS011;55741;53.252;5.788;2023-02-03T03:40:19;18.52;;;3.92;;
54123;SDS011;55741;53.252;5.788;2023-02-03T03:42:57;18.45;;;3.03;;
54123;SDS011;55741;53.252;5.788;2023-02-03T03:45:27;20.45;;;3.53;;
54123;SDS011;55741;53.252;5.788;2023-02-03T03:50:37;19.20;;;3.13;;
54123;SDS011;55741;53.252;5.788;2023-02-03T03:53:31;22.05;;;3.30;;
54123;SDS011;55741;53.252;5.788;2023-02-03T03:55:59;21.75;;;3.83;;
54123;SDS011;55741;53.252;5.788;2023-02-03T03:58:31;18.13;;;4.15;;
54123;SDS011;55741;53.252;5.788;2023-02-03T04:01:00;18.88;;;3.80;;
54123;SDS011;55741;53.252;5.788;2023-02-03T04:03:36;21.63;;;3.45;;
54123;SDS011;55741;53.252;5.788;2023-02-03T04:06:11;19.80;;;3.40;;
54123;SDS011;55741;53.252;5.788;2023-02-03T04:08:37;25.70;;;4.07;;
54123;SDS011;55741;53.252;5.788;2023-02-03T04:11:04;17.77;;;3.50;;
54123;SDS011;55741;53.252;5.788;2023-02-03T04:13:30;14.45;;;3.15;;
54123;SDS011;55741;53.252;5.788;2023-02-03T04:15:56;12.23;;;2.80;;
54123;SDS011;55741;53.252;5.788;2023-02-03T04:18:22;16.23;;;3.30;;
54123;SDS011;55741;53.252;5.788;2023-02-03T04:20:48;24.30;;;4.95;;
54123;SDS011;55741;53.252;5.788;2023-02-03T04:23:14;17.50;;;4.15;;
54123;SDS011;55741;53.252;5.788;2023-02-03T04:25:40;14.65;;;3.97;;
54123;SDS011;55741;53.252;5.788;2023-02-03T04:28:06;23.50;;;4.65;;
54123;SDS011;55741;53.252;5.788;2023-02-03T04:30:32;20.50;;;3.92;;
54123;SDS011;55741;53.252;5.788;2023-02-03T04:32:58;22.67;;;3.75;;
54123;SDS011;55741;53.252;5.788;2023-02-03T04:35:24;16.02;;;3.63;;
54123;SDS011;55741;53.252;5.788;2023-02-03T04:37:50;17.50;;;4.13;;
54123;SDS011;55741;53.252;5.788;2023-02-03T04:40:16;18.95;;;3.97;;
54123;SDS011;55741;53.252;5.788;2023-02-03T04:42:42;19.05;;;3.25;;
54123;SDS011;55741;53.252;5.788;2023-02-03T04:45:08;19.13;;;3.50;;
54123;SDS011;55741;53.252;5.788;2023-02-03T04:47:37;17.38;;;3.90;;
54123;SDS011;55741;53.252;5.788;2023-02-03T04:50:04;29.48;;;6.07;;
54123;SDS011;55741;53.252;5.788;2023-02-03T04:52:30;20.40;;;4.57;;
54123;SDS011;55741;53.252;5.788;2023-02-03T04:54:55;21.80;;;3.30;;
54123;SDS011;55741;53.252;5.788;2023-02-03T04:57:21;19.58;;;4.07;;
54123;SDS011;55741;53.252;5.788;2023-02-03T04:59:47;29.58;;;4.22;;
54123;SDS011;55741;53.252;5.788;2023-02-03T05:02:13;25.90;;;4.78;;
54123;SDS011;55741;53.252;5.788;2023-02-03T05:04:39;16.92;;;3.35;;
54123;SDS011;55741;53.252;5.788;2023-02-03T05:07:05;24.67;;;4.97;;
54123;SDS011;55741;53.252;5.788;2023-02-03T05:09:30;21.70;;;4.15;;
54123;SDS011;55741;53.252;5.788;2023-02-03T05:11:56;28.70;;;4.15;;
54123;SDS011;55741;53.252;5.788;2023-02-03T05:14:22;25.92;;;4.32;;
54123;SDS011;55741;53.252;5.788;2023-02-03T05:16:48;21.80;;;4.25;;
54123;SDS011;55741;53.252;5.788;2023-02-03T05:19:13;18.65;;;3.75;;
54123;SDS011;55741;53.252;5.788;2023-02-03T05:21:39;26.67;;;4.47;;
54123;SDS011;55741;53.252;5.788;2023-02-03T05:24:05;18.10;;;3.95;;
54123;SDS011;55741;53.252;5.788;2023-02-03T05:26:32;20.15;;;3.92;;
54123;SDS011;55741;53.252;5.788;2023-02-03T05:28:59;28.40;;;3.53;;
54123;SDS011;55741;53.252;5.788;2023-02-03T05:31:25;18.55;;;4.10;;
54123;SDS011;55741;53.252;5.788;2023-02-03T05:33:51;23.85;;;5.05;;
54123;SDS011;55741;53.252;5.788;2023-02-03T05:36:17;20.83;;;4.18;;
54123;SDS011;55741;53.252;5.788;2023-02-03T05:38:43;19.42;;;4.43;;
54123;SDS011;55741;53.252;5.788;2023-02-03T05:41:09;21.20;;;4.57;;
54123;SDS011;55741;53.252;5.788;2023-02-03T05:43:55;21.75;;;4.72;;
54123;SDS011;55741;53.252;5.788;2023-02-03T05:46:21;23.50;;;4.07;;
54123;SDS011;55741;53.252;5.788;2023-02-03T05:48:48;24.38;;;4.55;;
54123;SDS011;55741;53.252;5.788;2023-02-03T05:51:14;28.17;;;4.57;;
54123;SDS011;55741;53.252;5.788;2023-02-03T05:53:40;21.38;;;4.80;;
54123;SDS011;55741;53.252;5.788;2023-02-03T05:56:06;24.75;;;5.88;;
54123;SDS011;55741;53.252;5.788;2023-02-03T05:58:32;24.08;;;5.10;;
54123;SDS011;55741;53.252;5.788;2023-02-03T06:00:57;34.40;;;5.47;;
54123;SDS011;55741;53.252;5.788;2023-02-03T06:03:23;31.67;;;5.85;;
54123;SDS011;55741;53.252;5.788;2023-02-03T06:05:49;29.52;;;5.22;;
54123;SDS011;55741;53.252;5.788;2023-02-03T06:08:15;29.98;;;5.30;;
54123;SDS011;55741;53.252;5.788;2023-02-03T06:10:41;31.15;;;5.85;;
54123;SDS011;55741;53.252;5.788;2023-02-03T06:13:10;34.58;;;6.15;;
54123;SDS011;55741;53.252;5.788;2023-02-03T06:15:38;31.38;;;6.55;;
54123;SDS011;55741;53.252;5.788;2023-02-03T06:18:04;30.55;;;5.70;;
54123;SDS011;55741;53.252;5.788;2023-02-03T06:20:30;28.77;;;6.10;;
54123;SDS011;55741;53.252;5.788;2023-02-03T06:22:55;33.00;;;6.03;;
54123;SDS011;55741;53.252;5.788;2023-02-03T06:25:21;32.13;;;5.55;;
54123;SDS011;55741;53.252;5.788;2023-02-03T06:27:48;28.67;;;5.78;;
54123;SDS011;55741;53.252;5.788;2023-02-03T06:30:14;28.30;;;5.70;;
54123;SDS011;55741;53.252;5.788;2023-02-03T06:32:40;38.92;;;6.38;;
54123;SDS011;55741;53.252;5.788;2023-02-03T06:35:06;28.83;;;5.15;;
54123;SDS011;55741;53.252;5.788;2023-02-03T06:37:33;33.42;;;6.55;;
54123;SDS011;55741;53.252;5.788;2023-02-03T06:40:00;34.78;;;5.70;;
54123;SDS011;55741;53.252;5.788;2023-02-03T06:42:29;31.70;;;6.88;;
54123;SDS011;55741;53.252;5.788;2023-02-03T06:44:55;30.42;;;5.47;;
54123;SDS011;55741;53.252;5.788;2023-02-03T06:47:21;32.60;;;5.88;;
54123;SDS011;55741;53.252;5.788;2023-02-03T06:49:48;31.05;;;5.60;;
54123;SDS011;55741;53.252;5.788;2023-02-03T06:52:15;37.90;;;6.20;;
54123;SDS011;55741;53.252;5.788;2023-02-03T06:54:41;28.48;;;5.93;;
54123;SDS011;55741;53.252;5.788;2023-02-03T06:57:07;29.92;;;5.45;;
54123;SDS011;55741;53.252;5.788;2023-02-03T06:59:33;35.05;;;6.93;;
54123;SDS011;55741;53.252;5.788;2023-02-03T07:01:59;29.92;;;5.82;;
54123;SDS011;55741;53.252;5.788;2023-02-03T07:04:25;38.03;;;5.78;;
54123;SDS011;55741;53.252;5.788;2023-02-03T07:06:54;38.75;;;6.18;;
54123;SDS011;55741;53.252;5.788;2023-02-03T07:09:21;25.92;;;5.55;;
54123;SDS011;55741;53.252;5.788;2023-02-03T07:11:47;30.27;;;6.32;;
54123;SDS011;55741;53.252;5.788;2023-02-03T07:14:13;30.48;;;5.70;;
54123;SDS011;55741;53.252;5.788;2023-02-03T07:16:39;37.20;;;7.10;;
54123;SDS011;55741;53.252;5.788;2023-02-03T07:19:04;35.00;;;5.55;;
54123;SDS011;55741;53.252;5.788;2023-02-03T07:21:30;32.30;;;5.90;;
54123;SDS011;55741;53.252;5.788;2023-02-03T07:23:56;35.45;;;5.78;;
54123;SDS011;55741;53.252;5.788;2023-02-03T07:26:22;40.28;;;7.97;;
54123;SDS011;55741;53.252;5.788;2023-02-03T07:28:50;34.45;;;6.25;;
54123;SDS011;55741;53.252;5.788;2023-02-03T07:31:16;25.02;;;5.43;;
54123;SDS011;55741;53.252;5.788;2023-02-03T07:33:43;31.15;;;5.97;;
54123;SDS011;55741;53.252;5.788;2023-02-03T07:36:09;34.95;;;6.15;;
54123;SDS011;55741;53.252;5.788;2023-02-03T07:38:35;34.40;;;7.13;;
54123;SDS011;55741;53.252;5.788;2023-02-03T07:41:02;35.35;;;7.03;;
54123;SDS011;55741;53.252;5.788;2023-02-03T07:43:29;34.22;;;6.30;;
54123;SDS011;55741;53.252;5.788;2023-02-03T07:45:55;39.70;;;6.78;;
54123;SDS011;55741;53.252;5.788;2023-02-03T07:48:20;36.97;;;6.47;;
54123;SDS011;55741;53.252;5.788;2023-02-03T07:50:48;40.30;;;6.32;;
54123;SDS011;55741;53.252;5.788;2023-02-03T07:53:15;44.30;;;6.60;;
54123;SDS011;55741;53.252;5.788;2023-02-03T07:55:41;41.13;;;7.35;;
54123;SDS011;55741;53.252;5.788;2023-02-03T07:58:07;44.28;;;7.53;;
54123;SDS011;55741;53.252;5.788;2023-02-03T08:00:33;36.92;;;7.18;;
54123;SDS011;55741;53.252;5.788;2023-02-03T08:02:59;43.33;;;8.13;;
54123;SDS011;55741;53.252;5.788;2023-02-03T08:05:25;36.67;;;6.57;;
54123;SDS011;55741;53.252;5.788;2023-02-03T08:07:51;42.10;;;7.40;;
54123;SDS011;55741;53.252;5.788;2023-02-03T08:10:17;44.72;;;7.55;;
54123;SDS011;55741;53.252;5.788;2023-02-03T08:12:43;46.83;;;8.38;;
54123;SDS011;55741;53.252;5.788;2023-02-03T08:15:11;35.33;;;6.45;;
54123;SDS011;55741;53.252;5.788;2023-02-03T08:17:37;44.63;;;7.20;;
54123;SDS011;55741;53.252;5.788;2023-02-03T08:20:06;38.10;;;6.88;;
54123;SDS011;55741;53.252;5.788;2023-02-03T08:22:33;52.28;;;7.90;;
54123;SDS011;55741;53.252;5.788;2023-02-03T08:24:59;51.85;;;9.30;;
54123;SDS011;55741;53.252;5.788;2023-02-03T08:27:25;52.70;;;7.80;;
54123;SDS011;55741;53.252;5.788;2023-02-03T08:29:51;44.30;;;7.28;;
54123;SDS011;55741;53.252;5.788;2023-02-03T08:32:17;44.60;;;7.70;;
54123;SDS011;55741;53.252;5.788;2023-02-03T08:34:45;42.00;;;7.75;;
54123;SDS011;55741;53.252;5.788;2023-02-03T08:37:13;36.63;;;6.45;;
54123;SDS011;55741;53.252;5.788;2023-02-03T08:39:40;57.90;;;8.13;;
54123;SDS011;55741;53.252;5.788;2023-02-03T08:42:07;36.03;;;6.60;;
54123;SDS011;55741;53.252;5.788;2023-02-03T08:44:34;32.30;;;6.00;;
54123;SDS011;55741;53.252;5.788;2023-02-03T08:47:00;37.00;;;6.32;;
54123;SDS011;55741;53.252;5.788;2023-02-03T08:49:27;42.58;;;5.70;;
54123;SDS011;55741;53.252;5.788;2023-02-03T08:51:56;33.58;;;6.10;;
54123;SDS011;55741;53.252;5.788;2023-02-03T08:54:22;32.97;;;5.78;;
54123;SDS011;55741;53.252;5.788;2023-02-03T08:56:49;34.88;;;5.75;;
54123;SDS011;55741;53.252;5.788;2023-02-03T08:59:15;34.92;;;5.18;;
54123;SDS011;55741;53.252;5.788;2023-02-03T09:01:42;35.92;;;5.95;;
54123;SDS011;55741;53.252;5.788;2023-02-03T09:04:13;30.05;;;5.50;;
54123;SDS011;55741;53.252;5.788;2023-02-03T09:06:46;38.20;;;5.85;;
54123;SDS011;55741;53.252;5.788;2023-02-03T09:09:12;27.52;;;5.30;;
54123;SDS011;55741;53.252;5.788;2023-02-03T09:11:39;41.65;;;7.25;;
54123;SDS011;55741;53.252;5.788;2023-02-03T09:14:06;30.00;;;6.10;;
54123;SDS011;55741;53.252;5.788;2023-02-03T09:16:32;34.80;;;5.57;;
54123;SDS011;55741;53.252;5.788;2023-02-03T09:18:58;38.00;;;7.18;;
54123;SDS011;55741;53.252;5.788;2023-02-03T09:21:24;39.67;;;6.53;;
54123;SDS011;55741;53.252;5.788;2023-02-03T09:23:50;38.50;;;5.90;;
54123;SDS011;55741;53.252;5.788;2023-02-03T09:26:16;39.00;;;7.28;;
54123;SDS011;55741;53.252;5.788;2023-02-03T09:28:42;36.80;;;6.22;;
54123;SDS011;55741;53.252;5.788;2023-02-03T09:31:12;31.80;;;6.80;;
54123;SDS011;55741;53.252;5.788;2023-02-03T09:33:42;43.70;;;7.40;;
54123;SDS011;55741;53.252;5.788;2023-02-03T09:36:08;41.58;;;6.75;;
54123;SDS011;55741;53.252;5.788;2023-02-03T09:38:34;37.10;;;6.97;;
54123;SDS011;55741;53.252;5.788;2023-02-03T09:46:33;34.42;;;6.40;;
54123;SDS011;55741;53.252;5.788;2023-02-03T09:49:10;41.60;;;7.05;;
54123;SDS011;55741;53.252;5.788;2023-02-03T09:51:44;44.05;;;7.57;;
54123;SDS011;55741;53.252;5.788;2023-02-03T09:54:18;36.55;;;6.78;;
54123;SDS011;55741;53.252;5.788;2023-02-03T09:56:54;32.97;;;7.50;;
54123;SDS011;55741;53.252;5.788;2023-02-03T09:59:23;40.45;;;7.03;;
54123;SDS011;55741;53.252;5.788;2023-02-03T10:04:38;49.17;;;9.63;;
54123;SDS011;55741;53.252;5.788;2023-02-03T10:07:37;57.75;;;9.38;;
54123;SDS011;55741;53.252;5.788;2023-02-03T10:12:57;46.33;;;8.00;;
54123;SDS011;55741;53.252;5.788;2023-02-03T10:15:42;55.53;;;8.13;;
54123;SDS011;55741;53.252;5.788;2023-02-03T10:18:38;45.25;;;7.45;;
54123;SDS011;55741;53.252;5.788;2023-02-03T10:21:39;46.83;;;8.45;;
54123;SDS011;55741;53.252;5.788;2023-02-03T10:24:12;49.03;;;8.10;;
54123;SDS011;55741;53.252;5.788;2023-02-03T10:26:43;44.47;;;7.75;;
54123;SDS011;55741;53.252;5.788;2023-02-03T10:29:22;50.83;;;8.90;;
54123;SDS011;55741;53.252;5.788;2023-02-03T10:31:57;35.90;;;6.40;;
54123;SDS011;55741;53.252;5.788;2023-02-03T10:34:23;49.78;;;8.13;;
54123;SDS011;55741;53.252;5.788;2023-02-03T10:36:57;46.70;;;8.00;;
54123;SDS011;55741;53.252;5.788;2023-02-03T10:39:31;46.88;;;8.98;;
54123;SDS011;55741;53.252;5.788;2023-02-03T10:42:10;47.60;;;8.48;;
54123;SDS011;55741;53.252;5.788;2023-02-03T10:44:41;40.17;;;8.15;;
54123;SDS011;55741;53.252;5.788;2023-02-03T10:47:31;54.50;;;9.95;;
54123;SDS011;55741;53.252;5.788;2023-02-03T10:50:03;52.60;;;8.65;;
54123;SDS011;55741;53.252;5.788;2023-02-03T10:52:33;49.90;;;8.48;;
54123;SDS011;55741;53.252;5.788;2023-02-03T10:55:04;47.22;;;9.30;;
54123;SDS011;55741;53.252;5.788;2023-02-03T10:57:50;48.33;;;10.18;;
54123;SDS011;55741;53.252;5.788;2023-02-03T11:02:43;59.72;;;9.52;;
54123;SDS011;55741;53.252;5.788;2023-02-03T11:07:41;39.25;;;7.25;;
54123;SDS011;55741;53.252;5.788;2023-02-03T11:18:53;57.53;;;9.50;;
54123;SDS011;55741;53.252;5.788;2023-02-03T11:21:19;57.35;;;9.57;;
54123;SDS011;55741;53.252;5.788;2023-02-03T11:26:39;64.18;;;10.73;;
54123;SDS011;55741;53.252;5.788;2023-02-03T11:29:12;58.85;;;9.75;;
54123;SDS011;55741;53.252;5.788;2023-02-03T11:31:48;61.60;;;11.95;;
54123;SDS011;55741;53.252;5.788;2023-02-03T11:34:24;51.00;;;9.63;;
54123;SDS011;55741;53.252;5.788;2023-02-03T11:36:56;64.05;;;11.10;;
54123;SDS011;55741;53.252;5.788;2023-02-03T11:39:26;58.42;;;11.80;;
54123;SDS011;55741;53.252;5.788;2023-02-03T11:41:54;52.80;;;10.43;;
54123;SDS011;55741;53.252;5.788;2023-02-03T11:44:24;57.40;;;11.05;;
54123;SDS011;55741;53.252;5.788;2023-02-03T11:47:02;66.72;;;11.50;;
54123;SDS011;55741;53.252;5.788;2023-02-03T12:00:20;56.85;;;9.75;;
54123;SDS011;55741;53.252;5.788;2023-02-03T12:03:21;62.42;;;10.15;;
54123;SDS011;55741;53.252;5.788;2023-02-03T12:21:48;46.15;;;9.82;;
54123;SDS011;55741;53.252;5.788;2023-02-03T12:24:27;52.08;;;10.05;;
54123;SDS011;55741;53.252;5.788;2023-02-03T12:30:37;62.88;;;10.93;;
54123;SDS011;55741;53.252;5.788;2023-02-03T12:33:16;71.57;;;14.07;;
54123;SDS011;55741;53.252;5.788;2023-02-03T12:35:49;61.65;;;12.80;;
54123;SDS011;55741;53.252;5.788;2023-02-03T12:40:58;68.67;;;12.07;;
54123;SDS011;55741;53.252;5.788;2023-02-03T12:43:41;46.58;;;8.65;;
54123;SDS011;55741;53.252;5.788;2023-02-03T12:46:16;66.07;;;10.05;;
54123;SDS011;55741;53.252;5.788;2023-02-03T12:48:49;58.00;;;10.35;;
54123;SDS011;55741;53.252;5.788;2023-02-03T12:57:24;60.53;;;10.18;;
54123;SDS011;55741;53.252;5.788;2023-02-03T12:59:57;57.45;;;10.13;;
54123;SDS011;55741;53.252;5.788;2023-02-03T13:02:26;49.53;;;9.55;;
54123;SDS011;55741;53.252;5.788;2023-02-03T13:05:00;52.40;;;10.25;;
54123;SDS011;55741;53.252;5.788;2023-02-03T13:13:28;53.50;;;9.50;;
54123;SDS011;55741;53.252;5.788;2023-02-03T13:15:59;51.85;;;9.93;;
54123;SDS011;55741;53.252;5.788;2023-02-03T13:18:31;41.85;;;9.38;;
54123;SDS011;55741;53.252;5.788;2023-02-03T13:21:00;53.97;;;10.00;;
54123;SDS011;55741;53.252;5.788;2023-02-03T13:23:26;50.90;;;10.38;;
54123;SDS011;55741;53.252;5.788;2023-02-03T13:29:16;54.15;;;10.32;;
54123;SDS011;55741;53.252;5.788;2023-02-03T13:43:16;49.13;;;8.85;;
54123;SDS011;55741;53.252;5.788;2023-02-03T13:45:47;47.88;;;10.30;;
54123;SDS011;55741;53.252;5.788;2023-02-03T13:48:19;56.70;;;9.27;;
54123;SDS011;55741;53.252;5.788;2023-02-03T13:51:00;53.17;;;9.15;;
54123;SDS011;55741;53.252;5.788;2023-02-03T13:53:27;48.35;;;8.95;;
54123;SDS011;55741;53.252;5.788;2023-02-03T13:56:01;51.63;;;10.48;;
54123;SDS011;55741;53.252;5.788;2023-02-03T13:58:29;58.13;;;10.07;;
54123;SDS011;55741;53.252;5.788;2023-02-03T14:01:03;40.47;;;8.20;;
54123;SDS011;55741;53.252;5.788;2023-02-03T14:09:02;46.13;;;8.82;;
54123;SDS011;55741;53.252;5.788;2023-02-03T14:21:53;34.47;;;7.15;;
54123;SDS011;55741;53.252;5.788;2023-02-03T14:24:22;36.72;;;7.90;;
54123;SDS011;55741;53.252;5.788;2023-02-03T14:29:28;29.23;;;6.63;;
54123;SDS011;55741;53.252;5.788;2023-02-03T14:59:37;36.80;;;7.43;;
54123;SDS011;55741;53.252;5.788;2023-02-03T15:02:12;35.03;;;7.57;;
54123;SDS011;55741;53.252;5.788;2023-02-03T15:04:41;39.42;;;7.22;;
54123;SDS011;55741;53.252;5.788;2023-02-03T15:07:32;49.47;;;9.15;;
54123;SDS011;55741;53.252;5.788;2023-02-03T15:09:59;43.50;;;8.10;;
54123;SDS011;55741;53.252;5.788;2023-02-03T15:12:25;38.20;;;8.15;;
54123;SDS011;55741;53.252;5.788;2023-02-03T15:14:52;50.90;;;9.88;;
54123;SDS011;55741;53.252;5.788;2023-02-03T15:19:48;62.65;;;11.32;;
54123;SDS011;55741;53.252;5.788;2023-02-03T15:22:37;59.08;;;11.02;;
54123;SDS011;55741;53.252;5.788;2023-02-03T15:25:02;54.47;;;10.45;;
54123;SDS011;55741;53.252;5.788;2023-02-03T15:27:41;55.00;;;10.15;;
54123;SDS011;55741;53.252;5.788;2023-02-03T15:30:14;68.55;;;10.98;;
54123;SDS011;55741;53.252;5.788;2023-02-03T15:32:43;57.30;;;9.90;;
54123;SDS011;55741;53.252;5.788;2023-02-03T15:35:21;53.30;;;10.88;;
54123;SDS011;55741;53.252;5.788;2023-02-03T15:37:55;58.22;;;9.77;;
54123;SDS011;55741;53.252;5.788;2023-02-03T15:40:30;54.80;;;10.05;;
54123;SDS011;55741;53.252;5.788;2023-02-03T15:43:16;59.85;;;9.55;;
54123;SDS011;55741;53.252;5.788;2023-02-03T15:45:56;45.15;;;10.13;;
54123;SDS011;55741;53.252;5.788;2023-02-03T15:51:24;43.95;;;8.82;;
54123;SDS011;55741;53.252;5.788;2023-02-03T15:54:07;51.08;;;8.90;;
54123;SDS011;55741;53.252;5.788;2023-02-03T16:01:57;57.00;;;12.30;;
54123;SDS011;55741;53.252;5.788;2023-02-03T16:04:27;58.53;;;11.35;;
54123;SDS011;55741;53.252;5.788;2023-02-03T16:06:54;52.80;;;9.55;;
54123;SDS011;55741;53.252;5.788;2023-02-03T16:14:42;52.90;;;9.18;;
54123;SDS011;55741;53.252;5.788;2023-02-03T16:20:03;52.70;;;8.55;;
54123;SDS011;55741;53.252;5.788;2023-02-03T16:22:45;56.20;;;9.25;;
54123;SDS011;55741;53.252;5.788;2023-02-03T16:25:25;53.75;;;9.75;;
54123;SDS011;55741;53.252;5.788;2023-02-03T16:27:54;59.95;;;9.93;;
54123;SDS011;55741;53.252;5.788;2023-02-03T16:30:56;49.15;;;10.40;;
54123;SDS011;55741;53.252;5.788;2023-02-03T16:33:52;55.15;;;9.50;;
54123;SDS011;55741;53.252;5.788;2023-02-03T16:36:41;55.88;;;8.93;;
54123;SDS011;55741;53.252;5.788;2023-02-03T16:39:26;61.00;;;12.52;;
54123;SDS011;55741;53.252;5.788;2023-02-03T16:42:14;64.00;;;11.48;;
54123;SDS011;55741;53.252;5.788;2023-02-03T16:45:01;51.30;;;10.10;;
54123;SDS011;55741;53.252;5.788;2023-02-03T16:47:46;49.53;;;8.82;;
54123;SDS011;55741;53.252;5.788;2023-02-03T16:50:31;58.67;;;10.43;;
54123;SDS011;55741;53.252;5.788;2023-02-03T16:53:19;67.07;;;9.90;;
54123;SDS011;55741;53.252;5.788;2023-02-03T16:55:47;51.95;;;11.70;;
54123;SDS011;55741;53.252;5.788;2023-02-03T16:58:14;59.03;;;9.82;;
54123;SDS011;55741;53.252;5.788;2023-02-03T17:00:41;56.58;;;9.52;;
54123;SDS011;55741;53.252;5.788;2023-02-03T17:03:12;64.00;;;10.32;;
54123;SDS011;55741;53.252;5.788;2023-02-03T17:05:51;62.80;;;10.60;;
54123;SDS011;55741;53.252;5.788;2023-02-03T17:08:19;61.47;;;10.68;;
54123;SDS011;55741;53.252;5.788;2023-02-03T17:10:48;59.13;;;10.05;;
54123;SDS011;55741;53.252;5.788;2023-02-03T17:13:14;66.15;;;11.02;;
54123;SDS011;55741;53.252;5.788;2023-02-03T17:15:45;60.53;;;11.38;;
54123;SDS011;55741;53.252;5.788;2023-02-03T17:18:14;59.05;;;10.88;;
54123;SDS011;55741;53.252;5.788;2023-02-03T17:20:43;51.00;;;9.52;;
54123;SDS011;55741;53.252;5.788;2023-02-03T17:23:10;54.70;;;10.60;;
54123;SDS011;55741;53.252;5.788;2023-02-03T17:25:37;60.35;;;12.25;;
54123;SDS011;55741;53.252;5.788;2023-02-03T17:28:04;62.42;;;11.40;;
54123;SDS011;55741;53.252;5.788;2023-02-03T17:30:31;60.75;;;10.43;;
54123;SDS011;55741;53.252;5.788;2023-02-03T17:32:59;71.00;;;11.85;;
54123;SDS011;55741;53.252;5.788;2023-02-03T17:35:26;71.72;;;12.48;;
54123;SDS011;55741;53.252;5.788;2023-02-03T17:37:52;51.30;;;10.93;;
54123;SDS011;55741;53.252;5.788;2023-02-03T17:40:19;48.85;;;8.98;;
54123;SDS011;55741;53.252;5.788;2023-02-03T17:42:45;52.45;;;9.05;;
54123;SDS011;55741;53.252;5.788;2023-02-03T17:45:11;52.33;;;9.27;;
54123;SDS011;55741;53.252;5.788;2023-02-03T17:47:37;59.95;;;10.90;;
54123;SDS011;55741;53.252;5.788;2023-02-03T17:50:03;54.28;;;9.77;;